Wetter

Ora Tempo Temperatura Umidità Vento Precipitazioni
15:00 Mäßig bewölkt 20.0° 42% 1.93 km/h 0 mm
18:00 Mäßig bewölkt 18.6° 51% 2.39 km/h 0 mm
21:00 Ein paar Wolken 15.6° 58% 5.19 km/h 0 mm
Ora Tempo Temperatura Umidità Vento Precipitazioni
00:00 Klarer Himmel 11.8° 66% 4.97 km/h 0 mm
03:00 Klarer Himmel 9.9° 72% 4.69 km/h 0 mm
06:00 Klarer Himmel 11.6° 66% 4.43 km/h 0 mm
09:00 Klarer Himmel 17.3° 46% 5.75 km/h 0 mm
12:00 Klarer Himmel 18.9° 46% 0.37 km/h 0 mm
15:00 Klarer Himmel 19.7° 48% 3.53 km/h 0 mm
18:00 Mäßig bewölkt 15.9° 64% 3.83 km/h 0 mm
21:00 Ein paar Wolken 13.7° 65% 2.64 km/h 0 mm
Ora Tempo Temperatura Umidità Vento Precipitazioni
00:00 Mäßig bewölkt 12.7° 67% 1.89 km/h 0 mm
03:00 Klarer Himmel 11.5° 65% 1.89 km/h 0 mm
06:00 Klarer Himmel 12.4° 59% 1.44 km/h 0 mm
09:00 Mäßig bewölkt 15.3° 52% 1.54 km/h 0 mm
12:00 Überwiegend bewölkt 16.2° 58% 3.71 km/h 0 mm
15:00 Überwiegend bewölkt 16.9° 57% 3.34 km/h 0 mm
18:00 Überwiegend bewölkt 15.0° 71% 0.78 km/h 0 mm
21:00 Überwiegend bewölkt 14.3° 71% 0.38 km/h 0 mm
Ora Tempo Temperatura Umidità Vento Precipitazioni
00:00 Überwiegend bewölkt 13.1° 71% 2.23 km/h 0 mm
03:00 Überwiegend bewölkt 11.8° 72% 2.23 km/h 0 mm
06:00 Mäßig bewölkt 12.9° 72% 3.14 km/h 0 mm
09:00 Bedeckt 15.9° 70% 6.07 km/h 0 mm
12:00 Bedeckt 16.9° 62% 7.18 km/h 0 mm
15:00 Bedeckt 16.8° 62% 6.95 km/h 0 mm
18:00 Bedeckt 14.9° 71% 4.32 km/h 0 mm
21:00 Bedeckt 14.2° 68% 2.63 km/h 0 mm
Ora Tempo Temperatura Umidità Vento Precipitazioni
00:00 Leichter Regen 13.8° 68% 2.31 km/h 0.11 mm
03:00 Leichter Regen 13.8° 67% 3.87 km/h 0.22 mm
06:00 Leichter Regen 13.8° 74% 4.2 km/h 0.13 mm
09:00 Leichter Regen 14.6° 79% 3.51 km/h 0.13 mm
12:00 Leichter Regen 15.3° 80% 2.16 km/h 0.30 mm
15:00 Leichter Regen 15.2° 88% 1.58 km/h 0.45 mm
18:00 Leichter Regen 15.1° 88% 1.52 km/h 0.56 mm
21:00 Leichter Regen 14.7° 92% 2.15 km/h 0.98 mm
Ora Tempo Temperatura Umidità Vento Precipitazioni
00:00 Bedeckt 14.5° 92% 1.02 km/h 0 mm
03:00 Überwiegend bewölkt 14.4° 92% 1.2 km/h 0 mm
06:00 Überwiegend bewölkt 14.7° 90% 0.9 km/h 0 mm
09:00 Überwiegend bewölkt 16.3° 82% 1.79 km/h 0 mm
12:00 Leichter Regen 17.1° 75% 3.5 km/h 0.11 mm
Freitag 23 April
Temp. max: 20.0°
Temp. min: 13.3°
Ora Tempo Temperatura Umidità Vento Precipitazioni
15:00 Mäßig bewölkt 20.0° 42% 1.93 km/h 0 mm
18:00 Mäßig bewölkt 18.6° 51% 2.39 km/h 0 mm
21:00 Ein paar Wolken 15.6° 58% 5.19 km/h 0 mm
Samstag 24 April
Temp. max: 19.7°
Temp. min: 9.9°
Ora Tempo Temperatura Umidità Vento Precipitazioni
00:00 Klarer Himmel 11.8° 66% 4.97 km/h 0 mm
03:00 Klarer Himmel 9.9° 72% 4.69 km/h 0 mm
06:00 Klarer Himmel 11.6° 66% 4.43 km/h 0 mm
09:00 Klarer Himmel 17.3° 46% 5.75 km/h 0 mm
12:00 Klarer Himmel 18.9° 46% 0.37 km/h 0 mm
15:00 Klarer Himmel 19.7° 48% 3.53 km/h 0 mm
18:00 Mäßig bewölkt 15.9° 64% 3.83 km/h 0 mm
21:00 Ein paar Wolken 13.7° 65% 2.64 km/h 0 mm
Sonntag 25 April
Temp. max: 16.9°
Temp. min: 11.5°
Ora Tempo Temperatura Umidità Vento Precipitazioni
00:00 Mäßig bewölkt 12.7° 67% 1.89 km/h 0 mm
03:00 Klarer Himmel 11.5° 65% 1.89 km/h 0 mm
06:00 Klarer Himmel 12.4° 59% 1.44 km/h 0 mm
09:00 Mäßig bewölkt 15.3° 52% 1.54 km/h 0 mm
12:00 Überwiegend bewölkt 16.2° 58% 3.71 km/h 0 mm
15:00 Überwiegend bewölkt 16.9° 57% 3.34 km/h 0 mm
18:00 Überwiegend bewölkt 15.0° 71% 0.78 km/h 0 mm
21:00 Überwiegend bewölkt 14.3° 71% 0.38 km/h 0 mm
Montag 26 April
Temp. max: 16.9°
Temp. min: 11.8°
Ora Tempo Temperatura Umidità Vento Precipitazioni
00:00 Überwiegend bewölkt 13.1° 71% 2.23 km/h 0 mm
03:00 Überwiegend bewölkt 11.8° 72% 2.23 km/h 0 mm
06:00 Mäßig bewölkt 12.9° 72% 3.14 km/h 0 mm
09:00 Bedeckt 15.9° 70% 6.07 km/h 0 mm
12:00 Bedeckt 16.9° 62% 7.18 km/h 0 mm
15:00 Bedeckt 16.8° 62% 6.95 km/h 0 mm
18:00 Bedeckt 14.9° 71% 4.32 km/h 0 mm
21:00 Bedeckt 14.2° 68% 2.63 km/h 0 mm
Dienstag 27 April
Temp. max: 15.3°
Temp. min: 13.8°
Ora Tempo Temperatura Umidità Vento Precipitazioni
00:00 Leichter Regen 13.8° 68% 2.31 km/h 0.11 mm
03:00 Leichter Regen 13.8° 67% 3.87 km/h 0.22 mm
06:00 Leichter Regen 13.8° 74% 4.2 km/h 0.13 mm
09:00 Leichter Regen 14.6° 79% 3.51 km/h 0.13 mm
12:00 Leichter Regen 15.3° 80% 2.16 km/h 0.30 mm
15:00 Leichter Regen 15.2° 88% 1.58 km/h 0.45 mm
18:00 Leichter Regen 15.1° 88% 1.52 km/h 0.56 mm
21:00 Leichter Regen 14.7° 92% 2.15 km/h 0.98 mm
Mittwoch 28 April
Temp. max: 17.1°
Temp. min: 14.4°
Ora Tempo Temperatura Umidità Vento Precipitazioni
00:00 Bedeckt 14.5° 92% 1.02 km/h 0 mm
03:00 Überwiegend bewölkt 14.4° 92% 1.2 km/h 0 mm
06:00 Überwiegend bewölkt 14.7° 90% 0.9 km/h 0 mm
09:00 Überwiegend bewölkt 16.3° 82% 1.79 km/h 0 mm
12:00 Leichter Regen 17.1° 75% 3.5 km/h 0.11 mm

Live Cam

VUOI RICEVERE PIÚ INFORMAZIONI SUI NOSTRI SERVIZI?

Usa la form di contatti sul sito o contattaci telefonicamente